createdAt,value
2016-11-08T00:00:21.737Z,0
2016-11-08T00:01:31.409Z,0
2016-11-08T00:02:41.680Z,0
2016-11-08T00:03:51.337Z,0
2016-11-08T00:05:01.313Z,0
2016-11-08T00:06:11.585Z,0
2016-11-08T00:07:21.869Z,0
2016-11-08T00:08:32.171Z,0
2016-11-08T00:09:41.841Z,0
2016-11-08T00:10:52.115Z,0
2016-11-08T00:12:02.404Z,0
2016-11-08T00:13:11.756Z,0
2016-11-08T00:14:21.756Z,0
2016-11-08T00:15:31.738Z,0
2016-11-08T00:16:41.456Z,0
2016-11-08T00:17:51.746Z,0
2016-11-08T00:19:01.418Z,0
2016-11-08T00:20:11.112Z,0
2016-11-08T00:21:21.419Z,0
2016-11-08T00:22:31.694Z,0
2016-11-08T00:23:41.348Z,0
2016-11-08T00:24:51.357Z,0
2016-11-08T00:26:01.023Z,0
2016-11-08T00:27:11.286Z,0
2016-11-08T00:28:20.992Z,0
2016-11-08T00:29:30.958Z,0
2016-11-08T00:30:41.245Z,0
2016-11-08T00:31:51.224Z,0
2016-11-08T00:33:00.924Z,0
2016-11-08T00:34:10.885Z,0
2016-11-08T00:35:20.859Z,0
2016-11-08T00:36:31.123Z,0
2016-11-08T00:37:40.475Z,0
2016-11-08T00:38:50.443Z,0
2016-11-08T00:40:00.713Z,0
2016-11-08T00:41:10.981Z,0
2016-11-08T00:42:20.652Z,0
2016-11-08T00:43:30.935Z,0
2016-11-08T00:44:41.226Z,0
2016-11-08T00:45:50.567Z,0
2016-11-08T00:47:00.529Z,0
2016-11-08T00:48:10.506Z,0
2016-11-08T00:49:20.173Z,0
2016-11-08T00:50:30.131Z,0
2016-11-08T00:51:40.140Z,0
2016-11-08T00:52:50.155Z,0
2016-11-08T00:54:00.415Z,0
2016-11-08T00:55:10.712Z,0
2016-11-08T00:56:20.078Z,0
2016-11-08T00:57:30.364Z,0
2016-11-08T00:58:40.641Z,0
2016-11-08T00:59:50.908Z,0
2016-11-08T01:01:00.575Z,0
2016-11-08T01:02:10.551Z,0
2016-11-08T01:03:20.812Z,0
2016-11-08T01:04:30.463Z,0
2016-11-08T01:05:40.426Z,0
2016-11-08T01:06:50.083Z,0
2016-11-08T01:08:00.055Z,0
2016-11-08T01:09:09.707Z,0
2016-11-08T01:10:19.976Z,0
2016-11-08T01:11:30.268Z,0
2016-11-08T01:12:40.546Z,0
2016-11-08T01:13:50.517Z,0
2016-11-08T01:15:00.494Z,0
2016-11-08T01:16:10.408Z,0
2016-11-08T01:17:20.668Z,0
2016-11-08T01:18:30.680Z,0
2016-11-08T01:19:40.961Z,0
2016-11-08T01:20:50.928Z,0
2016-11-08T01:22:00.584Z,0
2016-11-08T01:23:09.952Z,0
2016-11-08T01:24:19.633Z,0
2016-11-08T01:25:29.596Z,0
2016-11-08T01:26:39.258Z,0
2016-11-08T01:27:49.577Z,0
2016-11-08T01:28:59.239Z,0
2016-11-08T01:30:08.930Z,0
2016-11-08T01:31:19.199Z,0
2016-11-08T01:32:29.499Z,0
2016-11-08T01:33:39.472Z,0
2016-11-08T01:34:49.127Z,0
2016-11-08T01:35:59.091Z,0
2016-11-08T01:37:09.362Z,0
2016-11-08T01:38:19.652Z,0
2016-11-08T01:39:29.620Z,0
2016-11-08T01:40:39.592Z,0
2016-11-08T01:41:49.587Z,0
2016-11-08T01:42:59.869Z,0
2016-11-08T01:44:10.141Z,0
2016-11-08T01:45:20.427Z,0
2016-11-08T01:46:30.401Z,0
2016-11-08T01:47:40.384Z,0
2016-11-08T01:48:50.349Z,0
2016-11-08T01:50:00.019Z,0
2016-11-08T01:51:09.982Z,0
2016-11-08T01:52:19.664Z,0
2016-11-08T01:53:29.664Z,0
2016-11-08T01:54:39.331Z,0
2016-11-08T01:55:49.602Z,0
2016-11-08T01:56:59.576Z,0
2016-11-08T01:58:09.847Z,0
2016-11-08T01:59:20.118Z,0
2016-11-08T02:00:29.781Z,0
2016-11-08T02:01:40.069Z,0
2016-11-08T02:02:50.368Z,0
2016-11-08T02:04:00.640Z,0
2016-11-08T02:05:10.924Z,0
2016-11-08T02:06:21.204Z,0
2016-11-08T02:07:31.556Z,0
2016-11-08T02:08:41.848Z,0
2016-11-08T02:09:52.118Z,0
2016-11-08T02:11:01.772Z,0
2016-11-08T02:12:12.043Z,0
2016-11-08T02:13:22.015Z,0
2016-11-08T02:14:32.295Z,0
2016-11-08T02:15:42.268Z,0
2016-11-08T02:16:52.545Z,0
2016-11-08T02:18:02.516Z,0
2016-11-08T02:19:12.797Z,0
2016-11-08T02:20:22.474Z,0
2016-11-08T02:21:32.441Z,0
2016-11-08T02:22:42.423Z,0
2016-11-08T02:23:52.424Z,0
2016-11-08T02:25:02.076Z,0
2016-11-08T02:26:12.034Z,0
2016-11-08T02:27:21.698Z,0
2016-11-08T02:28:31.980Z,0
2016-11-08T02:29:42.272Z,0
2016-11-08T02:30:52.255Z,0
2016-11-08T02:32:01.954Z,0
2016-11-08T02:33:12.238Z,0
2016-11-08T02:34:22.211Z,0
2016-11-08T02:35:31.857Z,0
2016-11-08T02:36:41.839Z,0
2016-11-08T02:37:52.152Z,0
2016-11-08T02:39:01.821Z,0
2016-11-08T02:40:12.089Z,0
2016-11-08T02:41:21.766Z,0
2016-11-08T02:42:32.039Z,0
2016-11-08T02:43:41.994Z,0
2016-11-08T02:44:51.955Z,0
2016-11-08T02:46:02.277Z,0
2016-11-08T02:47:12.564Z,0
2016-11-08T02:48:22.576Z,0
2016-11-08T02:49:32.552Z,0
2016-11-08T02:50:42.553Z,0
2016-11-08T02:51:52.818Z,0
2016-11-08T02:53:02.777Z,0
2016-11-08T02:54:13.070Z,0
2016-11-08T02:55:23.051Z,0
2016-11-08T02:56:33.337Z,0
2016-11-08T02:57:43.313Z,0
2016-11-08T02:58:53.291Z,0
2016-11-08T03:00:03.578Z,0
2016-11-08T03:32:02.735Z,0
2016-11-08T03:33:12.700Z,0
2016-11-08T03:34:22.970Z,0
2016-11-08T03:35:32.630Z,0
2016-11-08T03:36:42.901Z,0
2016-11-08T03:37:52.578Z,0
2016-11-08T03:39:02.550Z,0
2016-11-08T03:40:12.836Z,0
2016-11-08T03:41:22.808Z,0
2016-11-08T03:42:32.810Z,0
2016-11-08T03:43:43.093Z,0
2016-11-08T03:44:52.764Z,0
2016-11-08T03:46:03.049Z,0
2016-11-08T03:47:13.033Z,0
2016-11-08T03:48:23.308Z,0
2016-11-08T03:49:32.987Z,0
2016-11-08T03:50:43.281Z,0
2016-11-08T03:51:53.567Z,0
2016-11-08T03:53:03.566Z,0
2016-11-08T03:54:13.238Z,0
2016-11-08T03:55:23.215Z,0
2016-11-08T03:56:33.221Z,0
2016-11-08T03:57:42.593Z,0
2016-11-08T03:58:52.265Z,0
2016-11-08T04:00:02.546Z,0
2016-11-08T04:01:12.202Z,0
2016-11-08T04:02:22.506Z,0
2016-11-08T04:03:32.477Z,0
2016-11-08T04:04:42.487Z,0
2016-11-08T04:05:52.757Z,0
2016-11-08T04:07:02.440Z,0
2016-11-08T04:08:12.136Z,0
2016-11-08T04:09:22.113Z,0
2016-11-08T04:10:32.086Z,0
2016-11-08T04:11:41.738Z,0
2016-11-08T04:12:52.012Z,0
2016-11-08T04:14:02.015Z,0
2016-11-08T04:15:11.674Z,0
2016-11-08T04:16:21.333Z,0
2016-11-08T04:17:31.627Z,0
2016-11-08T04:18:41.911Z,0
2016-11-08T04:19:52.190Z,0
2016-11-08T04:21:02.485Z,0
2016-11-08T04:22:12.507Z,0
2016-11-08T04:23:22.474Z,0
2016-11-08T04:24:32.450Z,0
2016-11-08T04:25:42.414Z,0
2016-11-08T04:26:52.098Z,0
2016-11-08T04:28:02.385Z,0
2016-11-08T04:29:12.668Z,0
2016-11-08T04:30:22.634Z,0
2016-11-08T04:31:32.646Z,0
2016-11-08T04:32:42.312Z,0
2016-11-08T04:33:52.609Z,0
2016-11-08T04:35:02.891Z,0
2016-11-08T04:36:13.164Z,0
2016-11-08T04:37:22.824Z,0
2016-11-08T04:38:33.115Z,0
2016-11-08T04:39:43.088Z,0
2016-11-08T04:40:53.361Z,0
2016-11-08T04:42:03.322Z,0
2016-11-08T04:43:13.598Z,0
2016-11-08T04:44:23.564Z,0
2016-11-08T04:45:32.912Z,0
2016-11-08T04:46:42.881Z,0
2016-11-08T04:47:52.843Z,0
2016-11-08T04:49:02.505Z,0
2016-11-08T04:50:12.797Z,0
2016-11-08T04:51:23.083Z,0
2016-11-08T04:52:33.055Z,0
2016-11-08T04:53:43.344Z,0
2016-11-08T04:54:53.016Z,0
2016-11-08T04:56:02.972Z,0
2016-11-08T04:57:12.943Z,0
2016-11-08T04:58:22.918Z,0
2016-11-08T04:59:33.201Z,0
2016-11-08T05:00:43.531Z,0
2016-11-08T05:01:53.493Z,0
2016-11-08T05:03:03.772Z,0
2016-11-08T05:04:13.756Z,0
2016-11-08T05:05:24.020Z,0
2016-11-08T05:06:34.311Z,0
2016-11-08T05:07:44.592Z,0
2016-11-08T05:08:54.263Z,0
2016-11-08T05:10:04.225Z,0
2016-11-08T05:11:14.512Z,0
2016-11-08T05:12:24.475Z,0
2016-11-08T05:13:34.776Z,0
2016-11-08T05:14:44.789Z,0
2016-11-08T05:15:54.765Z,0
2016-11-08T05:17:04.728Z,0
2016-11-08T05:18:14.718Z,0
2016-11-08T05:19:24.698Z,0
2016-11-08T05:20:34.977Z,0
2016-11-08T05:21:45.252Z,4
2016-11-08T05:22:55.279Z,4
2016-11-08T05:24:05.270Z,4
2016-11-08T05:25:15.547Z,0
2016-11-08T05:26:25.529Z,4
2016-11-08T05:27:35.831Z,4
2016-11-08T05:28:46.107Z,4
2016-11-08T05:29:56.390Z,8
2016-11-08T05:31:06.681Z,8
2016-11-08T05:32:16.987Z,8
2016-11-08T05:33:27.266Z,8
2016-11-08T05:34:37.228Z,12
2016-11-08T05:35:47.209Z,12
2016-11-08T05:36:57.491Z,16
2016-11-08T05:38:07.783Z,20
2016-11-08T05:39:17.444Z,20
2016-11-08T05:40:27.114Z,28
2016-11-08T05:41:37.461Z,28
2016-11-08T05:42:47.437Z,36
2016-11-08T05:43:56.805Z,36
2016-11-08T05:45:06.787Z,44
2016-11-08T05:46:17.072Z,48
2016-11-08T05:47:27.355Z,56
2016-11-08T05:48:37.021Z,64
2016-11-08T05:49:46.996Z,68
2016-11-08T05:50:56.965Z,76
2016-11-08T05:52:06.636Z,84
2016-11-08T05:53:16.927Z,96
2016-11-08T05:54:26.895Z,100
2016-11-08T05:55:36.871Z,108
2016-11-08T05:56:46.548Z,120
2016-11-08T05:57:56.829Z,132
2016-11-08T05:59:06.503Z,144
2016-11-08T06:00:16.807Z,160
2016-11-08T06:01:26.471Z,172
2016-11-08T06:02:36.755Z,184
2016-11-08T06:03:47.032Z,196
2016-11-08T06:04:56.386Z,204
2016-11-08T06:06:06.667Z,216
2016-11-08T06:07:16.641Z,220
2016-11-08T06:08:26.610Z,232
2016-11-08T06:09:36.890Z,244
2016-11-08T06:10:47.184Z,260
2016-11-08T06:11:57.159Z,280
2016-11-08T06:13:06.891Z,304
2016-11-08T06:14:16.863Z,328
2016-11-08T06:15:26.838Z,356
2016-11-08T06:16:37.110Z,384
2016-11-08T06:17:47.388Z,420
2016-11-08T06:18:57.373Z,452
2016-11-08T06:20:06.736Z,472
2016-11-08T06:21:16.394Z,480
2016-11-08T06:22:26.371Z,484
2016-11-08T06:23:36.680Z,492
2016-11-08T06:24:46.971Z,500
2016-11-08T06:25:57.240Z,512
2016-11-08T06:27:07.561Z,528
2016-11-08T06:28:17.847Z,536
2016-11-08T06:29:27.819Z,548
2016-11-08T06:30:38.116Z,564
2016-11-08T06:31:48.414Z,596
2016-11-08T06:32:58.728Z,628
2016-11-08T06:34:08.425Z,656
2016-11-08T06:35:18.718Z,660
2016-11-08T06:36:29.004Z,648
2016-11-08T06:37:39.279Z,648
2016-11-08T06:38:49.248Z,636
2016-11-08T06:39:59.579Z,632
2016-11-08T06:41:09.546Z,636
2016-11-08T06:42:19.543Z,656
2016-11-08T06:43:29.840Z,676
2016-11-08T06:44:40.125Z,688
2016-11-08T06:45:50.412Z,704
2016-11-08T06:47:00.695Z,724
2016-11-08T06:48:10.669Z,748
2016-11-08T06:49:20.941Z,772
2016-11-08T06:50:30.633Z,804
2016-11-08T06:51:40.901Z,844
2016-11-08T06:52:51.179Z,884
2016-11-08T06:54:01.434Z,940
2016-11-08T06:55:11.081Z,1016
2016-11-08T06:56:21.038Z,1112
2016-11-08T06:57:31.309Z,1196
2016-11-08T06:58:41.576Z,1272
2016-11-08T06:59:51.534Z,1340
2016-11-08T07:01:01.810Z,1400
2016-11-08T07:02:12.085Z,1460
2016-11-08T07:03:22.347Z,1516
2016-11-08T07:04:31.999Z,1544
2016-11-08T07:05:42.291Z,1608
2016-11-08T07:06:51.938Z,1648
2016-11-08T07:08:01.598Z,1684
2016-11-08T07:09:11.857Z,1712
2016-11-08T07:10:21.848Z,1776
2016-11-08T07:11:32.115Z,1852
2016-11-08T07:12:42.384Z,1896
2016-11-08T07:13:52.073Z,1888
2016-11-08T07:15:02.355Z,1848
2016-11-08T07:16:12.320Z,1800
2016-11-08T07:17:21.683Z,1788
2016-11-08T07:18:31.954Z,1796
2016-11-08T07:19:41.911Z,1820
2016-11-08T07:20:52.214Z,1836
2016-11-08T07:22:02.491Z,1856
2016-11-08T07:23:12.446Z,1896
2016-11-08T07:24:22.714Z,1944
2016-11-08T07:25:32.990Z,1996
2016-11-08T07:26:42.875Z,2052
2016-11-08T07:27:53.143Z,2112
2016-11-08T07:29:02.485Z,2144
2016-11-08T07:30:12.787Z,2164
2016-11-08T07:31:22.758Z,2168
2016-11-08T07:32:32.714Z,2176
2016-11-08T07:33:42.982Z,2168
2016-11-08T07:34:53.268Z,2176
2016-11-08T07:36:03.545Z,2172
2016-11-08T07:37:13.532Z,2188
2016-11-08T07:38:23.842Z,2216
2016-11-08T07:39:34.105Z,2244
2016-11-08T07:40:44.373Z,2264
2016-11-08T07:41:54.639Z,2300
2016-11-08T07:43:04.031Z,2340
2016-11-08T07:44:14.312Z,2420
2016-11-08T07:45:24.275Z,2488
2016-11-08T07:46:34.538Z,2556
2016-11-08T07:47:44.541Z,2628
2016-11-08T07:48:54.888Z,2688
2016-11-08T07:50:04.861Z,2736
2016-11-08T07:51:15.122Z,2752
2016-11-08T07:52:25.083Z,2736
2016-11-08T07:53:35.370Z,2724
2016-11-08T07:54:45.321Z,2696
2016-11-08T07:55:55.283Z,2672
2016-11-08T07:57:05.249Z,2656
2016-11-08T07:58:15.541Z,2644
2016-11-08T07:59:25.208Z,2636
2016-11-08T08:00:35.480Z,2608
2016-11-08T08:01:45.143Z,2560
2016-11-08T08:02:55.123Z,2540
2016-11-08T08:04:05.430Z,2556
2016-11-08T08:05:15.701Z,2612
2016-11-08T08:06:25.974Z,2664
2016-11-08T08:07:36.254Z,2716
2016-11-08T08:08:46.528Z,2752
2016-11-08T08:09:56.814Z,2784
2016-11-08T08:11:06.830Z,2808
2016-11-08T08:12:16.511Z,2812
2016-11-08T08:13:26.549Z,2832
2016-11-08T08:14:36.530Z,2860
2016-11-08T08:15:46.807Z,2872
2016-11-08T08:16:57.076Z,2888
2016-11-08T08:18:07.360Z,2900
2016-11-08T08:19:17.036Z,2920
2016-11-08T08:20:26.994Z,2940
2016-11-08T08:21:36.981Z,2976
2016-11-08T08:22:46.951Z,3036
2016-11-08T08:23:57.205Z,3088
2016-11-08T08:25:07.500Z,3124
2016-11-08T08:26:17.482Z,3116
2016-11-08T08:27:27.744Z,3148
2016-11-08T08:28:37.703Z,3204
2016-11-08T08:29:47.826Z,3232
2016-11-08T08:30:57.791Z,3272
2016-11-08T08:32:07.770Z,3280
2016-11-08T08:33:18.036Z,3264
2016-11-08T08:34:28.288Z,3240
2016-11-08T08:35:37.942Z,3228
2016-11-08T08:36:47.602Z,3236
2016-11-08T08:37:57.565Z,3268
2016-11-08T08:39:07.515Z,3288
2016-11-08T08:40:17.183Z,3304
2016-11-08T08:41:27.148Z,3316
2016-11-08T08:42:37.414Z,3340
2016-11-08T08:43:47.675Z,3348
2016-11-08T08:44:57.637Z,3332
2016-11-08T08:46:07.961Z,3332
2016-11-08T08:47:17.965Z,3364
2016-11-08T08:48:28.460Z,3400
2016-11-08T08:49:38.104Z,3420
2016-11-08T08:50:47.747Z,3440
2016-11-08T08:51:57.402Z,3516
2016-11-08T08:53:07.359Z,3596
2016-11-08T08:54:17.011Z,3672
2016-11-08T08:55:27.277Z,3716
2016-11-08T08:56:36.921Z,3756
2016-11-08T08:57:47.186Z,3780
2016-11-08T08:58:57.160Z,3792
2016-11-08T09:00:07.426Z,3780
2016-11-08T09:01:17.421Z,3752
2016-11-08T09:02:27.706Z,3716
2016-11-08T09:03:38.033Z,3696
2016-11-08T09:04:47.995Z,3712
2016-11-08T09:05:58.327Z,3804
2016-11-08T09:07:07.982Z,3900
2016-11-08T09:08:17.325Z,3984
2016-11-08T09:09:27.297Z,4104
2016-11-08T09:10:37.576Z,4252
2016-11-08T09:11:47.850Z,4388
2016-11-08T09:12:58.116Z,4500
2016-11-08T09:14:08.423Z,4552
2016-11-08T09:15:18.695Z,4580
2016-11-08T09:16:28.961Z,4656
2016-11-08T09:17:39.272Z,4708
2016-11-08T09:18:49.220Z,4752
2016-11-08T09:19:59.501Z,4692
2016-11-08T09:21:09.518Z,4780
2016-11-08T09:22:19.799Z,4800
2016-11-08T09:23:30.086Z,4784
2016-11-08T09:24:39.743Z,4824
2016-11-08T09:25:49.720Z,4772
2016-11-08T09:26:59.391Z,4680
2016-11-08T09:28:09.417Z,4576
2016-11-08T09:29:19.693Z,4576
2016-11-08T09:30:28.741Z,4668
2016-11-08T09:31:39.013Z,4868
2016-11-08T09:32:49.300Z,5140
2016-11-08T09:33:59.257Z,5300
2016-11-08T09:35:09.542Z,5348
2016-11-08T09:36:19.959Z,5372
2016-11-08T09:37:29.931Z,5448
2016-11-08T09:38:40.208Z,5488
2016-11-08T09:39:50.223Z,5376
2016-11-08T09:41:00.210Z,5224
2016-11-08T09:42:10.487Z,4940
2016-11-08T09:43:20.443Z,4684
2016-11-08T09:44:30.730Z,4240
2016-11-08T09:45:40.697Z,3924
2016-11-08T09:46:50.708Z,3784
2016-11-08T09:48:00.670Z,3724
2016-11-08T09:49:10.942Z,3604
2016-11-08T09:50:20.588Z,3408
2016-11-08T09:51:30.549Z,3232
2016-11-08T09:52:40.202Z,3172
2016-11-08T09:53:50.463Z,3240
2016-11-08T09:55:00.741Z,3244
2016-11-08T09:56:11.026Z,3144
2016-11-08T09:57:21.287Z,3240
2016-11-08T09:58:31.254Z,3404
2016-11-08T09:59:40.915Z,3376
2016-11-08T10:00:50.887Z,3268
2016-11-08T10:02:00.855Z,3216
2016-11-08T10:03:10.823Z,3240
2016-11-08T10:04:21.083Z,3252
2016-11-08T10:05:31.057Z,3208
2016-11-08T10:06:41.031Z,3152
2016-11-08T10:07:51.316Z,3104
2016-11-08T10:09:01.276Z,3096
2016-11-08T10:10:11.559Z,3124
2016-11-08T10:11:21.827Z,3136
2016-11-08T10:12:31.798Z,3100
2016-11-08T10:13:42.065Z,3024
2016-11-08T10:14:52.062Z,2976
2016-11-08T10:16:02.352Z,2868
2016-11-08T10:17:12.014Z,2760
2016-11-08T10:18:22.296Z,2672
2016-11-08T10:19:32.562Z,2612
2016-11-08T10:20:42.852Z,2592
2016-11-08T10:21:53.150Z,2580
2016-11-08T10:23:03.437Z,2564
2016-11-08T10:24:13.717Z,2576
2016-11-08T10:25:24.018Z,2608
2016-11-08T10:26:34.310Z,2660
2016-11-08T10:27:44.293Z,2736
2016-11-08T10:28:53.959Z,2756
2016-11-08T10:30:03.941Z,2716
2016-11-08T10:31:13.910Z,2680
2016-11-08T10:32:24.199Z,2676
2016-11-08T10:33:34.522Z,2684
2016-11-08T10:34:44.503Z,2656
2016-11-08T10:35:54.508Z,2600
2016-11-08T10:37:04.489Z,2524
2016-11-08T10:38:14.787Z,2432
2016-11-08T10:39:24.760Z,2344
2016-11-08T10:40:34.756Z,2288
2016-11-08T10:41:45.047Z,2256
2016-11-08T10:42:55.029Z,2244
2016-11-08T10:44:04.995Z,2240
2016-11-08T10:45:15.286Z,2240
2016-11-08T10:46:25.577Z,2240
2016-11-08T10:47:35.895Z,2244
2016-11-08T10:48:46.211Z,2256
2016-11-08T10:49:56.226Z,2288
2016-11-08T10:51:06.555Z,2336
2016-11-08T10:52:16.942Z,2428
2016-11-08T10:53:27.269Z,2596
2016-11-08T10:54:37.577Z,2784
2016-11-08T10:55:47.299Z,2884
2016-11-08T10:56:57.601Z,2896
2016-11-08T10:58:07.894Z,2940
2016-11-08T10:59:18.257Z,3028
2016-11-08T11:00:28.267Z,3096
2016-11-08T11:01:38.272Z,3112
2016-11-08T11:02:48.293Z,3132
2016-11-08T11:03:58.588Z,3176
2016-11-08T11:05:08.876Z,3240
2016-11-08T11:06:19.167Z,3260
2016-11-08T11:07:29.502Z,3264
2016-11-08T11:08:39.809Z,3296
2016-11-08T11:09:50.131Z,3324
2016-11-08T11:11:00.124Z,3380
2016-11-08T11:12:10.096Z,3436
2016-11-08T11:13:20.388Z,3428
2016-11-08T11:14:30.711Z,3348
2016-11-08T11:15:40.693Z,3256
2016-11-08T11:16:50.975Z,3216
2016-11-08T11:18:00.942Z,3264
2016-11-08T11:19:11.228Z,3364
2016-11-08T11:20:21.512Z,3488
2016-11-08T11:21:31.518Z,3596
2016-11-08T11:22:41.798Z,3676
2016-11-08T11:23:51.791Z,3756
2016-11-08T11:25:01.767Z,3864
2016-11-08T11:26:12.049Z,3972
2016-11-08T11:27:22.331Z,4056
2016-11-08T11:28:32.307Z,4112
2016-11-08T11:29:42.574Z,4140
2016-11-08T11:30:52.581Z,4120
2016-11-08T11:32:01.934Z,4056
2016-11-08T11:33:11.611Z,4004
2016-11-08T11:34:21.892Z,4008
2016-11-08T11:35:31.574Z,4068
2016-11-08T11:36:41.546Z,4160
2016-11-08T11:37:51.835Z,4288
2016-11-08T11:39:01.490Z,4440
2016-11-08T11:40:11.166Z,4624
2016-11-08T11:41:21.148Z,4740
2016-11-08T11:42:31.437Z,4808
2016-11-08T11:43:41.719Z,4776
2016-11-08T11:44:52.019Z,4704
2016-11-08T11:46:02.312Z,4588
2016-11-08T11:47:12.297Z,4464
2016-11-08T11:48:21.994Z,4312
2016-11-08T11:49:31.986Z,4180
2016-11-08T11:50:41.694Z,4084
2016-11-08T11:51:52.033Z,3980
2016-11-08T11:53:02.364Z,3912
2016-11-08T11:54:12.328Z,3876
2016-11-08T11:55:22.330Z,3880
2016-11-08T11:56:32.627Z,3916
2016-11-08T11:57:42.603Z,3972
2016-11-08T11:58:52.306Z,4044
2016-11-08T12:00:02.594Z,4204
2016-11-08T12:01:12.899Z,4504
2016-11-08T12:02:22.872Z,4612
2016-11-08T12:03:33.149Z,4840
2016-11-08T12:04:43.456Z,4760
2016-11-08T12:05:53.732Z,4880
2016-11-08T12:07:04.004Z,4824
2016-11-08T12:08:13.985Z,4780
2016-11-08T12:09:24.262Z,4812
2016-11-08T12:10:34.244Z,4964
2016-11-08T12:11:43.897Z,5012
2016-11-08T12:12:53.934Z,5268
2016-11-08T12:14:04.209Z,5252
2016-11-08T12:15:14.191Z,5368
2016-11-08T12:16:24.173Z,5608
2016-11-08T12:17:34.470Z,5332
2016-11-08T12:18:44.787Z,5172
2016-11-08T12:19:55.084Z,4940
2016-11-08T12:21:05.082Z,4868
2016-11-08T12:22:15.369Z,4668
2016-11-08T12:23:25.669Z,4384
2016-11-08T12:24:35.957Z,4444
2016-11-08T12:25:46.239Z,4460
2016-11-08T12:26:56.535Z,4460
2016-11-08T12:28:06.516Z,4488
2016-11-08T12:29:16.487Z,4208
2016-11-08T12:30:26.465Z,4228
2016-11-08T12:31:36.748Z,4364
2016-11-08T12:32:46.724Z,4704
2016-11-08T12:33:56.385Z,5124
2016-11-08T12:35:06.048Z,5052
2016-11-08T12:36:16.473Z,4552
2016-11-08T12:37:26.780Z,4688
2016-11-08T12:38:36.768Z,4988
2016-11-08T12:39:47.046Z,4240
2016-11-08T12:40:57.357Z,4032
2016-11-08T12:42:07.375Z,4056
2016-11-08T12:43:17.370Z,4112
2016-11-08T12:44:27.643Z,4552
2016-11-08T12:45:37.921Z,4276
2016-11-08T12:46:48.256Z,4596
2016-11-08T12:47:58.578Z,4840
2016-11-08T12:49:08.880Z,5096
2016-11-08T12:50:18.850Z,5544
2016-11-08T12:51:28.829Z,4492
2016-11-08T12:52:39.150Z,4988
2016-11-08T12:53:49.458Z,5692
2016-11-08T12:54:59.428Z,6560
2016-11-08T12:56:09.724Z,7340
2016-11-08T12:57:20.054Z,7072
2016-11-08T12:58:30.359Z,5000
2016-11-08T12:59:40.352Z,4564
2016-11-08T13:00:50.644Z,3812
2016-11-08T13:02:00.921Z,3724
2016-11-08T13:03:11.206Z,3656
2016-11-08T13:04:21.179Z,3540
2016-11-08T13:05:31.150Z,3472
2016-11-08T13:06:41.480Z,3580
2016-11-08T13:07:51.483Z,3620
2016-11-08T13:09:01.797Z,3556
2016-11-08T13:10:12.086Z,3632
2016-11-08T13:11:22.373Z,3584
2016-11-08T13:12:32.650Z,3376
2016-11-08T13:13:42.007Z,3680
2016-11-08T13:14:52.280Z,3928
2016-11-08T13:16:02.551Z,3192
2016-11-08T13:17:12.852Z,3176
2016-11-08T13:18:23.138Z,3244
2016-11-08T13:19:33.425Z,3392
2016-11-08T13:20:43.719Z,3228
2016-11-08T13:21:54.007Z,3220
2016-11-08T13:23:03.985Z,3264
2016-11-08T13:24:13.953Z,3292
2016-11-08T13:25:23.939Z,3264
2016-11-08T13:26:34.235Z,3280
2016-11-08T13:27:43.941Z,3400
2016-11-08T13:28:54.223Z,3548
2016-11-08T13:30:04.207Z,3520
2016-11-08T13:31:14.516Z,3416
2016-11-08T13:32:24.482Z,3276
2016-11-08T13:33:34.465Z,3100
2016-11-08T13:34:44.762Z,2928
2016-11-08T13:35:55.068Z,2804
2016-11-08T13:37:05.340Z,2712
2016-11-08T13:38:15.321Z,2652
2016-11-08T13:39:25.595Z,2632
2016-11-08T13:40:35.275Z,2624
2016-11-08T13:41:44.674Z,2568
2016-11-08T13:42:54.973Z,2480
2016-11-08T13:44:05.251Z,2384
2016-11-08T13:45:14.941Z,2304
2016-11-08T13:46:25.215Z,2328
2016-11-08T13:47:35.519Z,2508
2016-11-08T13:48:45.802Z,2756
2016-11-08T13:49:56.103Z,2884
2016-11-08T13:51:06.381Z,2884
2016-11-08T13:52:16.372Z,2780
2016-11-08T13:53:26.185Z,2592
2016-11-08T13:54:35.852Z,2420
2016-11-08T13:55:45.849Z,2336
2016-11-08T13:56:55.834Z,2280
2016-11-08T13:58:05.186Z,2208
2016-11-08T13:59:14.560Z,2140
2016-11-08T14:00:24.578Z,2084
2016-11-08T14:01:34.875Z,2076
2016-11-08T14:02:45.166Z,2124
2016-11-08T14:03:55.468Z,2172
2016-11-08T14:05:05.794Z,2220
2016-11-08T14:06:15.781Z,2236
2016-11-08T14:07:26.059Z,2244
2016-11-08T14:08:36.040Z,2296
2016-11-08T14:09:46.021Z,2396
2016-11-08T14:10:56.321Z,2452
2016-11-08T14:12:06.311Z,2516
2016-11-08T14:13:16.292Z,2624
2016-11-08T14:14:26.279Z,2784
2016-11-08T14:15:36.256Z,2656
2016-11-08T14:16:45.953Z,2596
2016-11-08T14:17:55.614Z,2576
2016-11-08T14:19:05.915Z,2500
2016-11-08T14:20:16.205Z,2380
2016-11-08T14:21:26.488Z,2204
2016-11-08T14:22:36.166Z,2052
2016-11-08T14:23:46.132Z,1948
2016-11-08T14:24:56.461Z,1848
2016-11-08T14:26:06.440Z,1748
2016-11-08T14:27:16.737Z,1652
2016-11-08T14:28:26.720Z,1528
2016-11-08T14:29:37.029Z,1404
2016-11-08T14:30:47.327Z,1316
2016-11-08T14:31:57.308Z,1272
2016-11-08T14:33:07.610Z,1228
2016-11-08T14:34:17.892Z,1184
2016-11-08T14:35:28.201Z,1176
2016-11-08T14:36:38.181Z,1196
2016-11-08T14:37:48.472Z,1228
2016-11-08T14:38:58.499Z,1252
2016-11-08T14:40:08.816Z,1268
2016-11-08T14:41:19.114Z,1272
2016-11-08T14:42:28.779Z,1272
2016-11-08T14:43:38.450Z,1244
2016-11-08T14:44:48.430Z,1200
2016-11-08T14:45:58.394Z,1140
2016-11-08T14:47:08.680Z,1080
2016-11-08T14:48:18.682Z,1012
2016-11-08T14:49:28.649Z,940
2016-11-08T14:50:38.956Z,876
2016-11-08T14:51:48.923Z,820
2016-11-08T14:52:59.224Z,780
2016-11-08T14:54:08.887Z,748
2016-11-08T14:55:18.899Z,720
2016-11-08T14:56:28.870Z,696
2016-11-08T14:57:39.163Z,672
2016-11-08T14:58:49.131Z,636
2016-11-08T14:59:59.139Z,604
2016-11-08T15:01:09.507Z,564
2016-11-08T15:02:19.793Z,532
2016-11-08T15:03:30.079Z,496
2016-11-08T15:04:39.459Z,468
2016-11-08T15:05:49.756Z,440
2016-11-08T15:07:00.035Z,416
2016-11-08T15:08:10.421Z,388
2016-11-08T15:09:20.723Z,368
2016-11-08T15:10:30.418Z,344
2016-11-08T15:11:40.711Z,320
2016-11-08T15:12:50.998Z,300
2016-11-08T15:14:00.978Z,280
2016-11-08T15:15:10.962Z,260
2016-11-08T15:16:21.283Z,240
2016-11-08T15:17:31.576Z,220
2016-11-08T15:18:41.901Z,196
2016-11-08T15:19:51.617Z,176
2016-11-08T15:21:01.959Z,160
2016-11-08T15:22:11.650Z,144
2016-11-08T15:23:21.638Z,128
2016-11-08T15:24:31.615Z,112
2016-11-08T15:25:41.297Z,96
2016-11-08T15:26:51.596Z,88
2016-11-08T15:28:01.589Z,76
2016-11-08T15:29:11.574Z,72
2016-11-08T15:30:21.247Z,60
2016-11-08T15:31:31.259Z,52
2016-11-08T15:32:41.270Z,44
2016-11-08T15:33:51.605Z,36
2016-11-08T15:35:01.905Z,32
2016-11-08T15:36:11.591Z,28
2016-11-08T15:37:21.874Z,20
2016-11-08T15:38:32.177Z,20
2016-11-08T15:39:42.456Z,16
2016-11-08T15:40:52.738Z,12
2016-11-08T15:42:03.028Z,12
2016-11-08T15:43:13.317Z,8
2016-11-08T15:44:23.282Z,8
2016-11-08T15:45:33.584Z,8
2016-11-08T15:46:43.851Z,4
2016-11-08T15:47:53.228Z,4
2016-11-08T15:49:03.504Z,4
2016-11-08T15:50:13.462Z,4
2016-11-08T15:51:23.132Z,4
2016-11-08T15:52:33.098Z,4
2016-11-08T15:53:42.465Z,0
2016-11-08T15:54:52.462Z,0
2016-11-08T15:56:02.750Z,4
2016-11-08T15:57:12.759Z,4
2016-11-08T15:58:23.043Z,0
2016-11-08T15:59:33.026Z,0
2016-11-08T16:00:42.705Z,0
2016-11-08T16:01:53.001Z,0
2016-11-08T16:03:02.974Z,0
2016-11-08T16:04:13.275Z,0
2016-11-08T16:05:23.554Z,0
2016-11-08T16:06:33.850Z,0
2016-11-08T16:07:43.819Z,0
2016-11-08T16:08:53.783Z,0
2016-11-08T16:10:03.749Z,0
2016-11-08T16:11:13.706Z,0
2016-11-08T16:12:23.678Z,0
2016-11-08T16:13:33.657Z,0
2016-11-08T16:14:43.320Z,0
2016-11-08T16:15:53.295Z,0
2016-11-08T16:17:03.282Z,0
2016-11-08T16:18:12.957Z,0
2016-11-08T16:19:23.237Z,0
2016-11-08T16:20:33.519Z,0
2016-11-08T16:21:43.822Z,0
2016-11-08T16:22:54.098Z,0
2016-11-08T16:24:04.400Z,0
2016-11-08T16:25:14.376Z,0
2016-11-08T16:26:24.671Z,0
2016-11-08T16:27:34.959Z,0
2016-11-08T16:28:45.291Z,0
2016-11-08T16:29:55.263Z,0
2016-11-08T16:31:04.949Z,0
2016-11-08T16:32:15.254Z,0
2016-11-08T16:33:24.927Z,0
2016-11-08T16:34:34.893Z,0
2016-11-08T16:35:44.900Z,0
2016-11-08T16:36:55.192Z,0
2016-11-08T16:38:05.238Z,0
2016-11-08T16:39:15.213Z,0
2016-11-08T16:40:25.177Z,0
2016-11-08T16:41:35.471Z,0
2016-11-08T16:42:45.151Z,0
2016-11-08T16:43:55.131Z,0
2016-11-08T16:45:05.113Z,0